createdAt,value
2022-12-27T00:00:33.974Z,19.35
2022-12-27T00:05:36.241Z,18.33
2022-12-27T00:10:39.158Z,19.08
2022-12-27T00:15:41.346Z,20.00
2022-12-27T00:20:43.480Z,18.98
2022-12-27T00:25:45.607Z,19.05
2022-12-27T00:30:55.511Z,18.08
2022-12-27T00:36:01.244Z,16.83
2022-12-27T00:41:04.313Z,16.42
2022-12-27T00:46:06.961Z,15.75
2022-12-27T00:51:15.145Z,18.35
2022-12-27T00:56:20.172Z,16.05
2022-12-27T01:01:24.419Z,15.05
2022-12-27T01:06:29.527Z,18.23
2022-12-27T01:11:33.268Z,16.17
2022-12-27T01:16:35.654Z,15.07
2022-12-27T01:21:37.845Z,16.25
2022-12-27T01:26:40.093Z,14.77
2022-12-27T01:31:42.255Z,15.48
2022-12-27T01:36:45.230Z,18.25
2022-12-27T01:42:05.946Z,16.50
2022-12-27T01:52:24.829Z,17.23
2022-12-27T01:57:27.115Z,15.00
2022-12-27T02:02:29.608Z,16.77
2022-12-27T02:07:42.425Z,16.17
2022-12-27T02:12:44.763Z,15.00
2022-12-27T02:17:47.130Z,15.05
2022-12-27T02:23:26.520Z,14.68
2022-12-27T02:28:46.984Z,14.60
2022-12-27T02:33:52.610Z,12.52
2022-12-27T02:38:59.529Z,14.10
2022-12-27T02:44:20.635Z,12.95
2022-12-27T02:49:51.587Z,12.95
2022-12-27T02:55:09.562Z,14.93
2022-12-27T03:00:35.739Z,15.20
2022-12-27T03:06:30.157Z,14.82
2022-12-27T03:12:16.082Z,15.00
2022-12-27T03:17:31.116Z,14.45
2022-12-27T03:22:54.349Z,16.33
2022-12-27T03:28:23.597Z,20.33
2022-12-27T03:33:29.178Z,23.17
2022-12-27T03:38:36.868Z,16.85
2022-12-27T03:43:40.922Z,19.83
2022-12-27T03:49:04.010Z,19.83
2022-12-27T03:54:11.655Z,19.92
2022-12-27T03:59:13.839Z,20.10
2022-12-27T04:04:16.053Z,17.90
2022-12-27T04:09:36.860Z,19.05
2022-12-27T04:20:17.891Z,21.45
2022-12-27T04:30:58.681Z,15.52
2022-12-27T04:36:06.008Z,15.10
2022-12-27T04:41:26.937Z,15.88
2022-12-27T04:46:47.802Z,16.80
2022-12-27T04:52:08.311Z,16.55
2022-12-27T04:57:10.492Z,15.88
2022-12-27T05:02:12.995Z,16.40
2022-12-27T05:07:35.131Z,20.92
2022-12-27T05:12:55.690Z,21.27
2022-12-27T05:17:58.420Z,17.88
2022-12-27T05:23:19.405Z,17.08
2022-12-27T05:28:21.541Z,23.38
2022-12-27T05:33:23.711Z,27.33
2022-12-27T05:38:25.863Z,24.95
2022-12-27T05:43:28.952Z,26.75
2022-12-27T05:48:31.603Z,28.10
2022-12-27T05:53:33.842Z,28.75
2022-12-27T05:58:36.185Z,29.52
2022-12-27T06:03:39.199Z,30.20
2022-12-27T06:08:41.879Z,29.15
2022-12-27T06:13:49.036Z,34.42
2022-12-27T06:18:51.306Z,31.17
2022-12-27T06:23:53.538Z,33.55
2022-12-27T06:28:57.938Z,32.33
2022-12-27T06:34:00.090Z,30.02
2022-12-27T06:39:02.436Z,27.33
2022-12-27T06:44:04.755Z,26.52
2022-12-27T06:49:07.019Z,28.45
2022-12-27T06:54:09.250Z,28.25
2022-12-27T06:59:11.440Z,30.38
2022-12-27T07:04:13.584Z,32.28
2022-12-27T07:09:15.870Z,35.15
2022-12-27T07:14:18.082Z,36.83
2022-12-27T07:19:20.270Z,38.10
2022-12-27T07:24:22.471Z,37.42
2022-12-27T07:29:24.683Z,37.40
2022-12-27T07:34:26.805Z,38.53
2022-12-27T07:39:29.352Z,38.90
2022-12-27T07:44:31.471Z,40.72
2022-12-27T07:49:33.676Z,35.50
2022-12-27T07:54:36.336Z,36.95
2022-12-27T07:59:38.522Z,39.25
2022-12-27T08:04:40.753Z,40.90
2022-12-27T08:09:45.741Z,39.15
2022-12-27T08:14:47.912Z,39.65
2022-12-27T08:19:52.696Z,36.78
2022-12-27T08:24:56.648Z,35.45
2022-12-27T08:29:58.869Z,41.67
2022-12-27T08:37:16.176Z,39.47
2022-12-27T08:42:18.435Z,36.58
2022-12-27T08:47:20.631Z,38.60
2022-12-27T08:52:22.787Z,35.28
2022-12-27T08:57:24.980Z,33.47
2022-12-27T09:02:27.284Z,34.83
2022-12-27T09:07:30.097Z,33.78
2022-12-27T09:12:33.859Z,35.15
2022-12-27T09:17:36.382Z,35.47
2022-12-27T09:22:40.072Z,36.10
2022-12-27T09:27:42.198Z,35.80
2022-12-27T09:32:44.412Z,38.55
2022-12-27T09:37:46.563Z,39.40
2022-12-27T09:43:19.063Z,38.53
2022-12-27T09:48:35.076Z,38.50
2022-12-27T09:53:51.768Z,37.85
2022-12-27T09:58:57.816Z,40.75
2022-12-27T10:04:01.000Z,37.13
2022-12-27T10:09:30.919Z,37.75
2022-12-27T10:14:59.626Z,39.73
2022-12-27T10:20:31.323Z,35.75
2022-12-27T10:25:36.567Z,32.33
2022-12-27T10:30:41.132Z,37.75
2022-12-27T10:35:43.331Z,36.05
2022-12-27T10:40:59.859Z,30.35
2022-12-27T10:46:32.482Z,34.20
2022-12-27T10:51:37.878Z,35.10
2022-12-27T10:56:42.277Z,36.67
2022-12-27T11:01:46.555Z,41.63
2022-12-27T11:07:05.563Z,42.10
2022-12-27T11:12:25.868Z,40.08
2022-12-27T11:17:54.342Z,45.63
2022-12-27T11:23:06.340Z,35.78
2022-12-27T11:28:29.543Z,36.08
2022-12-27T11:33:39.751Z,39.90
2022-12-27T11:38:45.467Z,38.58
2022-12-27T11:44:01.314Z,34.95
2022-12-27T11:49:09.644Z,39.08
2022-12-27T11:54:21.211Z,35.80
2022-12-27T11:59:26.121Z,33.30
2022-12-27T12:04:46.169Z,34.90
2022-12-27T12:10:11.778Z,28.60
2022-12-27T12:15:32.499Z,31.02
2022-12-27T12:21:13.352Z,27.58
2022-12-27T12:26:22.441Z,27.73
2022-12-27T12:31:42.437Z,27.63
2022-12-27T12:37:14.654Z,25.38
2022-12-27T12:42:29.813Z,22.13
2022-12-27T12:47:50.110Z,21.48
2022-12-27T12:58:06.227Z,19.58
2022-12-27T13:04:06.612Z,19.38
2022-12-27T13:09:17.862Z,17.50
2022-12-27T13:14:22.760Z,15.68
2022-12-27T13:19:59.379Z,14.30
2022-12-27T13:25:29.586Z,14.50
2022-12-27T13:30:49.019Z,11.93
2022-12-27T13:36:13.127Z,13.90
2022-12-27T13:41:30.208Z,12.63
2022-12-27T13:46:43.044Z,10.82
2022-12-27T13:51:50.355Z,11.68
2022-12-27T13:57:23.662Z,11.93
2022-12-27T14:02:37.873Z,13.05
2022-12-27T14:07:51.246Z,13.23
2022-12-27T14:12:53.365Z,11.90
2022-12-27T14:18:24.682Z,12.18
2022-12-27T14:23:54.694Z,12.43
2022-12-27T14:29:34.251Z,13.35
2022-12-27T14:34:40.992Z,13.85
2022-12-27T14:39:51.840Z,14.80
2022-12-27T14:45:35.142Z,15.48
2022-12-27T14:51:08.132Z,16.52
2022-12-27T14:56:24.979Z,18.85
2022-12-27T15:01:59.235Z,18.35
2022-12-27T15:07:42.983Z,19.55
2022-12-27T15:13:26.587Z,22.52
2022-12-27T15:18:56.046Z,23.23
2022-12-27T15:24:09.839Z,21.48
2022-12-27T15:29:24.327Z,24.52
2022-12-27T15:34:26.562Z,22.42
2022-12-27T15:39:35.942Z,26.27
2022-12-27T15:45:02.397Z,27.92
2022-12-27T15:50:20.675Z,24.50
2022-12-27T15:55:40.703Z,24.25
2022-12-27T16:00:44.921Z,25.13
2022-12-27T16:05:53.995Z,26.75
2022-12-27T16:10:57.128Z,21.33
2022-12-27T16:16:00.685Z,25.67
2022-12-27T16:21:22.940Z,32.88
2022-12-27T16:26:31.114Z,41.85
2022-12-27T16:31:41.842Z,41.78
2022-12-27T16:36:49.004Z,32.95
2022-12-27T16:41:57.186Z,39.92
2022-12-27T16:47:11.192Z,35.08
2022-12-27T16:52:13.369Z,38.65
2022-12-27T16:57:24.398Z,37.10
2022-12-27T17:02:40.524Z,42.70
2022-12-27T17:07:51.725Z,34.92
2022-12-27T17:13:14.895Z,37.05
2022-12-27T17:18:31.400Z,42.45
2022-12-27T17:23:41.078Z,36.22
2022-12-27T17:29:06.817Z,34.42
2022-12-27T17:34:11.608Z,32.65
2022-12-27T17:39:25.812Z,36.13
2022-12-27T17:44:52.001Z,36.58
2022-12-27T17:49:58.204Z,36.72
2022-12-27T17:55:36.177Z,39.95
2022-12-27T18:26:39.303Z,41.92
2022-12-27T18:31:55.354Z,41.33
2022-12-27T18:37:05.230Z,42.50
2022-12-27T18:42:31.577Z,59.65
2022-12-27T18:47:40.671Z,47.35
2022-12-27T18:52:46.293Z,51.95
2022-12-27T18:58:20.183Z,67.35
2022-12-27T19:03:23.261Z,66.45
2022-12-27T19:08:29.246Z,62.83
2022-12-27T19:13:37.504Z,88.50
2022-12-27T19:18:39.784Z,89.10
2022-12-27T19:23:51.752Z,76.40
2022-12-27T19:29:08.696Z,91.03
2022-12-27T19:34:17.189Z,76.97
2022-12-27T19:39:26.077Z,71.97
2022-12-27T19:44:28.443Z,66.30
2022-12-27T19:49:45.872Z,68.45
2022-12-27T19:54:50.200Z,57.55
2022-12-27T19:59:52.324Z,60.60
2022-12-27T20:04:54.525Z,54.92
2022-12-27T20:09:56.797Z,48.15
2022-12-27T20:14:59.022Z,43.30
2022-12-27T20:20:01.293Z,40.30
2022-12-27T20:25:03.507Z,43.40
2022-12-27T20:30:06.353Z,40.78
2022-12-27T20:35:10.584Z,44.33
2022-12-27T20:40:12.964Z,43.60
2022-12-27T20:45:25.770Z,41.92
2022-12-27T20:50:27.983Z,35.25
2022-12-27T20:55:31.760Z,40.60
2022-12-27T21:00:33.994Z,34.78
2022-12-27T21:05:37.204Z,44.22
2022-12-27T21:10:39.375Z,43.70
2022-12-27T21:15:46.289Z,43.47
2022-12-27T21:20:48.409Z,40.30
2022-12-27T21:25:50.593Z,44.53
2022-12-27T21:31:02.777Z,42.47
2022-12-27T21:36:08.289Z,36.95
2022-12-27T21:41:31.104Z,40.75
2022-12-27T21:46:38.698Z,37.25
2022-12-27T21:51:42.523Z,36.75
2022-12-27T21:56:44.731Z,34.65
2022-12-27T22:01:52.864Z,37.80
2022-12-27T22:06:55.146Z,35.58
2022-12-27T22:11:58.843Z,36.05
2022-12-27T22:17:02.527Z,40.05
2022-12-27T22:22:04.754Z,39.67
2022-12-27T22:27:06.942Z,33.58
2022-12-27T22:32:09.159Z,39.95
2022-12-27T22:37:11.286Z,39.13
2022-12-27T22:42:13.446Z,38.97
2022-12-27T22:47:26.150Z,34.63
2022-12-27T22:52:29.480Z,37.15
2022-12-27T22:57:31.665Z,41.78
2022-12-27T23:02:35.357Z,39.40
2022-12-27T23:08:06.091Z,35.15
2022-12-27T23:12:59.844Z,47.40
2022-12-27T23:18:02.019Z,48.25
2022-12-27T23:23:04.172Z,42.85
2022-12-27T23:28:06.289Z,55.88
2022-12-27T23:33:12.173Z,48.97
2022-12-27T23:38:14.443Z,44.45
2022-12-27T23:43:50.374Z,38.03
2022-12-27T23:48:39.040Z,36.00
2022-12-27T23:53:42.074Z,40.63
2022-12-27T23:58:50.771Z,31.15
